Time;durP1;ratioP1;P1;durP2;ratioP2;P2;SDS_P1;SDS_P2;PMS_P1;PMS_P2;Temp;Humidity;BMP_temperature;BMP_pressure;BME280_temperature;BME280_humidity;BME280_pressure;Samples;Min_cycle;Max_cycle;Signal;HPM_P1;HPM_P2
2021/03/03 00:02:20;;;;;;;61.13;25.73;;;;;;;;;;6288140;28;20465;-73
2021/03/03 00:05:21;;;;;;;65.43;25.88;;;;;;;;;;6288573;28;20053;-74
2021/03/03 00:08:22;;;;;;;61.30;24.88;;;;;;;;;;6290328;28;20201;-74
2021/03/03 00:11:23;;;;;;;60.60;25.98;;;;;;;;;;6288396;28;20057;-73
2021/03/03 00:14:25;;;;;;;57.92;26.02;;;;;;;;;;6288901;28;20127;-74
2021/03/03 00:17:26;;;;;;;55.13;24.00;;;;;;;;;;6285040;28;20072;-74
2021/03/03 00:20:28;;;;;;;47.20;26.65;;;;;;;;;;6291264;28;20132;-76
2021/03/03 00:23:29;;;;;;;61.00;36.10;;;;;;;;;;6287654;28;20045;-75
2021/03/03 00:26:30;;;;;;;126.90;70.82;;;;;;;;;;6292215;28;20048;-76
2021/03/03 00:29:32;;;;;;;97.95;50.40;;;;;;;;;;6292959;28;20062;-75
2021/03/03 00:32:33;;;;;;;76.15;42.28;;;;;;;;;;6299571;28;20098;-75
2021/03/03 00:35:34;;;;;;;50.92;27.88;;;;;;;;;;6300321;28;20128;-75
2021/03/03 00:38:35;;;;;;;42.88;27.25;;;;;;;;;;6299051;28;20514;-75
2021/03/03 00:41:37;;;;;;;41.13;25.42;;;;;;;;;;6295876;28;20087;-75
2021/03/03 00:44:39;;;;;;;42.90;26.30;;;;;;;;;;6298906;28;20593;-75
2021/03/03 00:47:40;;;;;;;45.65;26.30;;;;;;;;;;6294761;28;20045;-76
2021/03/03 00:50:41;;;;;;;46.50;26.88;;;;;;;;;;6295798;28;20040;-76
2021/03/03 00:53:42;;;;;;;44.15;27.52;;;;;;;;;;6294209;28;20079;-75
2021/03/03 00:56:43;;;;;;;44.42;26.90;;;;;;;;;;6289888;28;20040;-75
2021/03/03 00:59:45;;;;;;;47.90;26.75;;;;;;;;;;6301739;28;20198;-75
2021/03/03 01:02:46;;;;;;;41.58;27.10;;;;;;;;;;6295786;28;20052;-75
2021/03/03 01:05:47;;;;;;;48.20;28.15;;;;;;;;;;6296530;28;20036;-75
2021/03/03 01:08:48;;;;;;;48.75;28.15;;;;;;;;;;6299982;28;20178;-77
2021/03/03 01:11:49;;;;;;;48.47;27.52;;;;;;;;;;6301497;28;20045;-74
2021/03/03 01:14:51;;;;;;;48.22;28.13;;;;;;;;;;6296795;28;20465;-77
2021/03/03 01:17:54;;;;;;;49.70;30.05;;;;;;;;;;6292482;28;20048;-77
2021/03/03 01:20:55;;;;;;;47.43;28.30;;;;;;;;;;6292262;28;20053;-76
2021/03/03 01:23:56;;;;;;;49.13;29.58;;;;;;;;;;6294158;28;20044;-76
2021/03/03 01:26:58;;;;;;;46.55;27.60;;;;;;;;;;6294945;28;20048;-75
2021/03/03 01:29:59;;;;;;;46.42;28.27;;;;;;;;;;6294932;28;20444;-75
2021/03/03 01:33:01;;;;;;;47.95;28.67;;;;;;;;;;6292078;28;20071;-74
2021/03/03 01:36:02;;;;;;;53.83;30.05;;;;;;;;;;6295426;28;20060;-74
2021/03/03 01:39:04;;;;;;;49.00;28.98;;;;;;;;;;6291391;28;20131;-76
2021/03/03 01:42:05;;;;;;;46.53;28.10;;;;;;;;;;6290981;28;20067;-76
2021/03/03 01:45:08;;;;;;;52.28;30.15;;;;;;;;;;6288823;28;20113;-76
2021/03/03 01:48:10;;;;;;;48.93;28.20;;;;;;;;;;6294248;28;20143;-76
2021/03/03 01:51:12;;;;;;;45.05;29.02;;;;;;;;;;6294290;28;20059;-76
2021/03/03 01:54:13;;;;;;;50.42;30.67;;;;;;;;;;6296377;28;20051;-75
2021/03/03 01:57:14;;;;;;;50.55;29.08;;;;;;;;;;6294187;28;20135;-75
2021/03/03 02:00:18;;;;;;;45.90;29.85;;;;;;;;;;6297986;28;20483;-75
2021/03/03 02:03:20;;;;;;;51.60;29.48;;;;;;;;;;6307488;23;20475;-79
2021/03/03 02:06:24;;;;;;;50.10;30.17;;;;;;;;;;6290727;28;20040;-78
2021/03/03 02:09:32;;;;;;;60.65;30.98;;;;;;;;;;6288382;28;20052;-78
2021/03/03 02:12:37;;;;;;;52.15;29.08;;;;;;;;;;6293240;28;20064;-79
2021/03/03 02:15:41;;;;;;;56.58;30.38;;;;;;;;;;6297477;28;20044;-77
2021/03/03 02:18:43;;;;;;;50.88;28.60;;;;;;;;;;6299607;28;21321;-80
2021/03/03 02:21:46;;;;;;;48.55;28.95;;;;;;;;;;6285423;28;20051;-76
2021/03/03 02:24:51;;;;;;;47.58;27.83;;;;;;;;;;6300496;28;20127;-78
2021/03/03 02:27:54;;;;;;;54.55;28.60;;;;;;;;;;6298226;28;20048;-76
2021/03/03 02:30:56;;;;;;;46.47;26.83;;;;;;;;;;6298099;28;20072;-79
2021/03/03 02:33:58;;;;;;;50.40;27.83;;;;;;;;;;6296421;28;20036;-76
2021/03/03 02:36:59;;;;;;;40.85;25.98;;;;;;;;;;6300243;28;20160;-76
2021/03/03 02:40:03;;;;;;;46.70;27.25;;;;;;;;;;6301201;28;20099;-74
2021/03/03 02:43:05;;;;;;;42.72;25.98;;;;;;;;;;6303014;28;20072;-74
2021/03/03 02:46:07;;;;;;;45.17;26.67;;;;;;;;;;6294721;28;20131;-75
2021/03/03 02:49:08;;;;;;;41.95;25.63;;;;;;;;;;6295065;28;20113;-73
2021/03/03 02:52:09;;;;;;;45.20;27.23;;;;;;;;;;6292145;28;20051;-74
2021/03/03 02:55:12;;;;;;;44.95;27.42;;;;;;;;;;6297025;28;20564;-76
2021/03/03 02:58:14;;;;;;;44.50;27.20;;;;;;;;;;6293648;28;20044;-76
2021/03/03 03:01:15;;;;;;;44.78;28.55;;;;;;;;;;6293989;28;20044;-76
2021/03/03 03:04:18;;;;;;;47.83;26.88;;;;;;;;;;6294188;28;20127;-79
2021/03/03 03:07:21;;;;;;;46.03;27.67;;;;;;;;;;6291854;28;20048;-74
2021/03/03 03:10:23;;;;;;;43.53;28.02;;;;;;;;;;6304162;28;20041;-80
2021/03/03 03:13:28;;;;;;;49.55;27.50;;;;;;;;;;6291507;28;20114;-75
2021/03/03 03:16:30;;;;;;;44.63;28.15;;;;;;;;;;6287515;28;20086;-76
2021/03/03 03:19:35;;;;;;;45.60;27.98;;;;;;;;;;6293701;28;20147;-75
2021/03/03 03:22:35;;;;;;;;;;;;;;;;;;6295981;28;20101;-76
2021/03/03 03:25:38;;;;;;;44.13;26.33;;;;;;;;;;6293623;28;19921;-75
2021/03/03 03:28:41;;;;;;;45.80;27.65;;;;;;;;;;6292642;28;20040;-74
2021/03/03 03:31:43;;;;;;;45.83;27.88;;;;;;;;;;6288251;28;20744;-76
2021/03/03 03:34:44;;;;;;;46.70;28.15;;;;;;;;;;6294200;28;20136;-75
2021/03/03 03:37:45;;;;;;;44.67;26.60;;;;;;;;;;6297423;28;20512;-74
2021/03/03 03:40:47;;;;;;;46.33;28.75;;;;;;;;;;6297189;28;20052;-75
2021/03/03 03:43:50;;;;;;;44.67;27.73;;;;;;;;;;6293595;28;20127;-74
2021/03/03 03:46:52;;;;;;;41.63;26.95;;;;;;;;;;6293409;28;20046;-76
2021/03/03 03:49:53;;;;;;;46.70;29.23;;;;;;;;;;6291747;28;20131;-76
2021/03/03 03:52:55;;;;;;;49.22;27.33;;;;;;;;;;6295123;28;20170;-77
2021/03/03 03:55:56;;;;;;;46.55;27.70;;;;;;;;;;6293759;28;20172;-74
2021/03/03 03:58:58;;;;;;;44.67;26.67;;;;;;;;;;6292152;28;20048;-75
2021/03/03 04:01:59;;;;;;;47.22;28.60;;;;;;;;;;6288114;28;20517;-76
2021/03/03 04:05:00;;;;;;;43.75;27.13;;;;;;;;;;6291580;28;20051;-76
2021/03/03 04:08:01;;;;;;;42.55;27.38;;;;;;;;;;6288443;28;20127;-75
2021/03/03 04:11:03;;;;;;;46.42;27.02;;;;;;;;;;6291047;28;20079;-80
2021/03/03 04:14:09;;;;;;;42.40;27.83;;;;;;;;;;6294206;28;20083;-75
2021/03/03 04:17:10;;;;;;;49.45;28.40;;;;;;;;;;6290967;28;20052;-76
2021/03/03 04:20:12;;;;;;;46.55;28.02;;;;;;;;;;6291366;28;20036;-75
2021/03/03 04:23:13;;;;;;;43.55;27.45;;;;;;;;;;6288092;28;20546;-77
2021/03/03 04:26:14;;;;;;;44.80;27.65;;;;;;;;;;6291885;28;20471;-76
2021/03/03 04:29:16;;;;;;;56.35;29.30;;;;;;;;;;6298491;28;20610;-75
2021/03/03 04:32:17;;;;;;;50.65;29.15;;;;;;;;;;6294894;28;20053;-74
2021/03/03 04:35:18;;;;;;;50.50;28.75;;;;;;;;;;6292392;28;20115;-76
2021/03/03 04:38:19;;;;;;;47.00;29.55;;;;;;;;;;6294047;28;20052;-74
2021/03/03 04:41:20;;;;;;;52.72;29.50;;;;;;;;;;6291836;28;20186;-74
2021/03/03 04:44:22;;;;;;;45.65;29.48;;;;;;;;;;6292177;28;20064;-75
2021/03/03 04:47:23;;;;;;;53.97;29.85;;;;;;;;;;6285917;28;20066;-76
2021/03/03 04:50:24;;;;;;;47.20;29.35;;;;;;;;;;6286614;28;20054;-77
2021/03/03 04:53:25;;;;;;;51.63;29.40;;;;;;;;;;6293837;28;20135;-74
2021/03/03 04:56:26;;;;;;;52.63;30.30;;;;;;;;;;6293288;28;20139;-75
2021/03/03 04:59:28;;;;;;;51.90;29.73;;;;;;;;;;6293312;28;20470;-75
2021/03/03 05:02:29;;;;;;;49.38;29.98;;;;;;;;;;6288836;28;20131;-75
2021/03/03 05:05:30;;;;;;;52.35;30.38;;;;;;;;;;6287836;28;20055;-74
2021/03/03 05:08:31;;;;;;;52.78;30.27;;;;;;;;;;6290682;28;20040;-75
2021/03/03 05:11:32;;;;;;;47.08;28.73;;;;;;;;;;6290501;28;20174;-75
2021/03/03 05:14:34;;;;;;;43.65;27.70;;;;;;;;;;6296084;28;20070;-75
2021/03/03 05:17:35;;;;;;;47.00;30.30;;;;;;;;;;6287360;28;20058;-76
2021/03/03 05:20:37;;;;;;;51.65;29.75;;;;;;;;;;6287894;28;20131;-74
2021/03/03 05:23:38;;;;;;;54.08;30.75;;;;;;;;;;6307332;28;20106;-74
2021/03/03 05:26:39;;;;;;;47.08;29.05;;;;;;;;;;6289256;28;20049;-77
2021/03/03 05:29:41;;;;;;;59.67;30.42;;;;;;;;;;6290694;28;20123;-75
2021/03/03 05:32:42;;;;;;;54.10;31.33;;;;;;;;;;6292730;28;20033;-75
2021/03/03 05:35:43;;;;;;;44.38;28.17;;;;;;;;;;6295320;28;20127;-76
2021/03/03 05:38:44;;;;;;;51.05;27.92;;;;;;;;;;6295322;28;20117;-74
2021/03/03 05:41:45;;;;;;;47.40;27.45;;;;;;;;;;6302892;28;20044;-75
2021/03/03 05:44:48;;;;;;;50.78;28.50;;;;;;;;;;6290894;28;20147;-75
2021/03/03 05:47:50;;;;;;;47.05;28.10;;;;;;;;;;6292341;28;20053;-75
2021/03/03 05:50:57;;;;;;;48.47;29.25;;;;;;;;;;6292989;28;20123;-75
2021/03/03 05:53:59;;;;;;;47.25;28.13;;;;;;;;;;6295701;28;20109;-74
2021/03/03 05:57:00;;;;;;;48.90;29.50;;;;;;;;;;6291794;28;20045;-75
2021/03/03 06:00:05;;;;;;;45.13;27.52;;;;;;;;;;6296768;28;20123;-75
2021/03/03 06:03:06;;;;;;;48.63;28.25;;;;;;;;;;6290742;28;20086;-76
2021/03/03 06:06:07;;;;;;;44.78;27.58;;;;;;;;;;6292639;28;20044;-79
2021/03/03 06:09:08;;;;;;;49.15;28.33;;;;;;;;;;6296678;28;20053;-77
2021/03/03 06:12:11;;;;;;;47.05;28.05;;;;;;;;;;6291480;28;20036;-77
2021/03/03 06:15:15;;;;;;;43.67;27.38;;;;;;;;;;6291192;28;20156;-76
2021/03/03 06:18:18;;;;;;;;;;;;;;;;;;6295701;28;20174;-75
2021/03/03 06:21:26;;;;;;;47.45;26.50;;;;;;;;;;6291715;28;19924;-76
2021/03/03 06:24:33;;;;;;;47.75;26.98;;;;;;;;;;6290036;28;20143;-76
2021/03/03 06:27:38;;;;;;;42.55;26.85;;;;;;;;;;6297072;28;20135;-76
2021/03/03 06:30:40;;;;;;;40.10;26.48;;;;;;;;;;6296221;28;20056;-76
2021/03/03 06:33:41;;;;;;;49.85;27.02;;;;;;;;;;6296996;28;20498;-82
2021/03/03 06:36:44;;;;;;;44.95;28.67;;;;;;;;;;6291210;28;20509;-76
2021/03/03 06:39:45;;;;;;;44.08;26.60;;;;;;;;;;6290840;28;20048;-76
2021/03/03 06:42:46;;;;;;;46.78;27.85;;;;;;;;;;6288922;28;20120;-76
2021/03/03 06:45:49;;;;;;;43.78;28.67;;;;;;;;;;6292248;28;20044;-76
2021/03/03 06:48:50;;;;;;;46.53;27.35;;;;;;;;;;6295460;28;20047;-76
2021/03/03 06:51:52;;;;;;;48.15;27.08;;;;;;;;;;6296549;28;20143;-76
2021/03/03 06:55:00;;;;;;;48.50;26.90;;;;;;;;;;6289618;28;20055;-75
2021/03/03 06:58:28;;;;;;;58.72;29.50;;;;;;;;;;6288952;28;20832;-77
2021/03/03 07:01:34;;;;;;;52.58;27.50;;;;;;;;;;6289154;28;20130;-77
2021/03/03 07:04:36;;;;;;;51.78;27.60;;;;;;;;;;6291759;28;20485;-77
2021/03/03 07:07:37;;;;;;;48.88;28.25;;;;;;;;;;6293801;28;20503;-76
2021/03/03 07:10:38;;;;;;;54.70;28.02;;;;;;;;;;6296601;28;20123;-76
2021/03/03 07:13:40;;;;;;;48.17;27.80;;;;;;;;;;6293123;28;20462;-76
2021/03/03 07:17:03;;;;;;;48.78;29.15;;;;;;;;;;6292018;28;20056;-78
2021/03/03 07:20:07;;;;;;;51.08;27.70;;;;;;;;;;6289921;28;20065;-77
2021/03/03 07:23:08;;;;;;;47.17;27.83;;;;;;;;;;6285794;28;20492;-77
2021/03/03 07:26:10;;;;;;;45.53;28.15;;;;;;;;;;6285551;28;20166;-76
2021/03/03 07:29:12;;;;;;;58.38;28.80;;;;;;;;;;6288832;28;20513;-76
2021/03/03 07:32:14;;;;;;;44.80;27.65;;;;;;;;;;6287850;28;20754;-78
2021/03/03 07:35:16;;;;;;;56.20;29.05;;;;;;;;;;6293269;28;20079;-77
2021/03/03 07:38:17;;;;;;;46.38;27.60;;;;;;;;;;6284462;28;20041;-78
2021/03/03 07:41:19;;;;;;;45.35;28.45;;;;;;;;;;6288352;28;20041;-77
2021/03/03 07:44:21;;;;;;;52.78;30.90;;;;;;;;;;6289425;28;20424;-79
2021/03/03 07:47:24;;;;;;;50.35;30.63;;;;;;;;;;6284749;28;20048;-79
2021/03/03 07:50:25;;;;;;;53.55;29.48;;;;;;;;;;6286653;28;20693;-78
2021/03/03 07:53:27;;;;;;;46.22;29.73;;;;;;;;;;6284431;28;20079;-77
2021/03/03 07:56:28;;;;;;;48.05;29.17;;;;;;;;;;6285999;28;20132;-77
2021/03/03 07:59:30;;;;;;;58.40;29.80;;;;;;;;;;6285385;28;20455;-77
2021/03/03 08:02:47;;;;;;;47.15;29.77;;;;;;;;;;6286080;28;20130;-78
2021/03/03 08:05:48;;;;;;;51.97;30.25;;;;;;;;;;6283840;28;20415;-77
2021/03/03 08:09:11;;;;;;;52.65;29.92;;;;;;;;;;6285551;28;20127;-78
2021/03/03 08:12:12;;;;;;;52.30;31.20;;;;;;;;;;6286892;28;20084;-78
2021/03/03 08:15:31;;;;;;;48.33;29.40;;;;;;;;;;6288269;28;20083;-80
2021/03/03 08:18:34;;;;;;;51.30;28.52;;;;;;;;;;6289415;28;20135;-79
2021/03/03 08:21:46;;;;;;;43.83;27.08;;;;;;;;;;6290384;28;20128;-79
2021/03/03 08:24:48;;;;;;;48.22;26.23;;;;;;;;;;6290054;28;20074;-80
2021/03/03 08:27:49;;;;;;;45.78;25.73;;;;;;;;;;6286474;28;20045;-79
2021/03/03 08:31:24;;;;;;;44.42;25.63;;;;;;;;;;6281549;28;20131;-79
2021/03/03 08:34:49;;;;;;;43.25;25.77;;;;;;;;;;6282813;28;20048;-79
2021/03/03 08:37:53;;;;;;;44.42;27.67;;;;;;;;;;6292810;28;20041;-79
2021/03/03 08:41:30;;;;;;;44.63;28.00;;;;;;;;;;6293651;28;20094;-80
2021/03/03 08:44:31;;;;;;;47.47;26.23;;;;;;;;;;6290784;28;20055;-79
2021/03/03 08:47:51;;;;;;;42.35;26.48;;;;;;;;;;6290630;28;20129;-79
2021/03/03 08:50:54;;;;;;;54.95;27.27;;;;;;;;;;6294867;28;20045;-77
2021/03/03 08:53:56;;;;;;;51.25;27.23;;;;;;;;;;6292427;28;20407;-79
2021/03/03 08:56:57;;;;;;;47.28;25.35;;;;;;;;;;6301292;28;20671;-78
2021/03/03 08:59:58;;;;;;;49.72;26.90;;;;;;;;;;6297975;28;20129;-77
2021/03/03 09:02:59;;;;;;;46.83;27.00;;;;;;;;;;6295648;28;20790;-78
2021/03/03 09:06:01;;;;;;;46.35;28.13;;;;;;;;;;6293221;28;20127;-80
2021/03/03 09:09:03;;;;;;;42.95;26.35;;;;;;;;;;6294467;28;20127;-79
2021/03/03 09:12:05;;;;;;;51.55;29.27;;;;;;;;;;6293002;28;20135;-79
2021/03/03 09:15:08;;;;;;;44.85;27.45;;;;;;;;;;6293487;28;20116;-79
2021/03/03 09:18:18;;;;;;;43.67;30.07;;;;;;;;;;6294097;28;20052;-78
2021/03/03 09:21:20;;;;;;;51.80;29.17;;;;;;;;;;6292931;28;20131;-80
2021/03/03 09:24:22;;;;;;;47.33;29.23;;;;;;;;;;6291103;28;20056;-79
2021/03/03 09:27:24;;;;;;;49.20;29.75;;;;;;;;;;6291636;28;20679;-77
2021/03/03 09:30:26;;;;;;;51.03;29.83;;;;;;;;;;6295373;28;20075;-79
2021/03/03 09:33:27;;;;;;;50.92;30.60;;;;;;;;;;6293406;28;20134;-79
2021/03/03 09:36:29;;;;;;;57.30;31.33;;;;;;;;;;6286170;28;20052;-79
2021/03/03 09:39:30;;;;;;;52.70;32.58;;;;;;;;;;6291463;28;22805;-79
2021/03/03 09:42:37;;;;;;;55.95;32.92;;;;;;;;;;6289345;28;20490;-79
2021/03/03 09:45:39;;;;;;;57.70;31.95;;;;;;;;;;6289076;28;20059;-79
2021/03/03 09:48:40;;;;;;;57.35;33.10;;;;;;;;;;6290822;28;20755;-78
2021/03/03 09:51:45;;;;;;;51.15;32.28;;;;;;;;;;6289105;28;20123;-82
2021/03/03 09:54:46;;;;;;;56.28;32.50;;;;;;;;;;6288880;28;20395;-80
2021/03/03 09:57:49;;;;;;;57.97;33.55;;;;;;;;;;6290455;28;20131;-78
2021/03/03 10:00:50;;;;;;;59.45;33.10;;;;;;;;;;6290327;28;20049;-77
2021/03/03 10:03:52;;;;;;;56.05;32.95;;;;;;;;;;6288261;28;20079;-78
2021/03/03 10:06:54;;;;;;;62.13;35.38;;;;;;;;;;6287588;28;20831;-76
2021/03/03 10:09:56;;;;;;;51.42;33.38;;;;;;;;;;6287953;28;20128;-78
2021/03/03 10:12:58;;;;;;;54.10;34.47;;;;;;;;;;6289628;28;20709;-76
2021/03/03 10:15:59;;;;;;;59.58;35.20;;;;;;;;;;6290138;28;20131;-76
2021/03/03 10:19:01;;;;;;;58.72;35.03;;;;;;;;;;6291717;28;20133;-76
2021/03/03 10:22:08;;;;;;;54.97;36.50;;;;;;;;;;6287048;28;20068;-77
2021/03/03 10:25:13;;;;;;;55.38;34.38;;;;;;;;;;6288869;28;20089;-77
2021/03/03 10:28:16;;;;;;;54.33;35.20;;;;;;;;;;6286593;28;20048;-76
2021/03/03 10:31:18;;;;;;;59.85;34.92;;;;;;;;;;6290163;28;20120;-77
2021/03/03 10:34:21;;;;;;;52.40;34.55;;;;;;;;;;6292093;28;20043;-76
2021/03/03 10:37:24;;;;;;;59.83;35.88;;;;;;;;;;6285383;28;20052;-77
2021/03/03 10:40:25;;;;;;;61.80;36.47;;;;;;;;;;6286977;28;20079;-78
2021/03/03 10:43:27;;;;;;;61.25;36.33;;;;;;;;;;6288947;28;20411;-77
2021/03/03 10:46:28;;;;;;;59.42;37.00;;;;;;;;;;6288560;28;20402;-77
2021/03/03 10:49:29;;;;;;;59.53;36.92;;;;;;;;;;6290002;28;20080;-78
2021/03/03 10:52:31;;;;;;;56.72;34.85;;;;;;;;;;6288530;28;20443;-78
2021/03/03 10:55:34;;;;;;;56.53;35.35;;;;;;;;;;6289997;28;20203;-77
2021/03/03 10:58:37;;;;;;;65.60;37.43;;;;;;;;;;6288891;28;20135;-77
2021/03/03 11:01:43;;;;;;;55.30;35.55;;;;;;;;;;6288537;28;20999;-77
2021/03/03 11:04:45;;;;;;;59.92;34.10;;;;;;;;;;6291821;28;20094;-79
2021/03/03 11:07:47;;;;;;;58.10;33.83;;;;;;;;;;6289401;28;20098;-77
2021/03/03 11:10:49;;;;;;;54.55;32.95;;;;;;;;;;6294486;28;20070;-77
2021/03/03 11:13:50;;;;;;;49.63;32.00;;;;;;;;;;6289751;28;20037;-76
2021/03/03 11:16:52;;;;;;;50.30;31.80;;;;;;;;;;6289217;28;20140;-76
2021/03/03 11:19:53;;;;;;;45.80;32.47;;;;;;;;;;6283598;28;20118;-77
2021/03/03 11:22:55;;;;;;;48.03;31.40;;;;;;;;;;6288130;28;20052;-77
2021/03/03 11:25:57;;;;;;;49.83;30.85;;;;;;;;;;6284592;28;20135;-76
2021/03/03 11:28:59;;;;;;;56.28;33.72;;;;;;;;;;6289489;28;20055;-77
2021/03/03 11:32:00;;;;;;;56.90;33.42;;;;;;;;;;6289059;28;20040;-78
2021/03/03 11:35:01;;;;;;;49.72;31.40;;;;;;;;;;6289021;28;20070;-77
2021/03/03 11:38:03;;;;;;;50.75;31.60;;;;;;;;;;6292224;28;20600;-76
2021/03/03 11:41:04;;;;;;;49.45;31.73;;;;;;;;;;6286029;28;20493;-77
2021/03/03 11:44:07;;;;;;;52.60;32.85;;;;;;;;;;6291038;28;20151;-78
2021/03/03 11:47:08;;;;;;;49.78;31.23;;;;;;;;;;6288019;28;20052;-76
2021/03/03 11:50:10;;;;;;;52.17;32.33;;;;;;;;;;6286982;28;20119;-77
2021/03/03 11:53:12;;;;;;;52.55;31.63;;;;;;;;;;6287975;28;20057;-78
2021/03/03 11:56:13;;;;;;;49.22;30.70;;;;;;;;;;6291468;28;20127;-78
2021/03/03 11:59:14;;;;;;;50.50;32.55;;;;;;;;;;6284210;28;20458;-78
2021/03/03 12:02:16;;;;;;;51.47;31.77;;;;;;;;;;6287825;28;20128;-75
2021/03/03 12:05:18;;;;;;;52.40;30.55;;;;;;;;;;6287136;28;20615;-77
2021/03/03 12:08:20;;;;;;;50.13;31.02;;;;;;;;;;6287040;28;20143;-84
2021/03/03 12:11:21;;;;;;;52.25;30.60;;;;;;;;;;6284203;28;20566;-77
2021/03/03 12:14:22;;;;;;;50.35;30.75;;;;;;;;;;6289208;28;20060;-78
2021/03/03 12:17:23;;;;;;;48.80;31.25;;;;;;;;;;5933504;28;10000535;-76
2021/03/03 12:20:27;;;;;;;49.38;30.08;;;;;;;;;;6282596;28;20049;-78
2021/03/03 12:23:29;;;;;;;54.25;31.95;;;;;;;;;;6286643;28;20098;-79
2021/03/03 12:26:30;;;;;;;52.75;32.63;;;;;;;;;;6290079;28;20464;-77
2021/03/03 12:29:31;;;;;;;50.08;31.63;;;;;;;;;;6294947;28;20099;-81
2021/03/03 12:32:33;;;;;;;47.42;31.30;;;;;;;;;;6293650;28;20060;-77
2021/03/03 12:35:34;;;;;;;46.95;29.13;;;;;;;;;;6290909;28;20404;-77
2021/03/03 12:38:36;;;;;;;46.92;31.33;;;;;;;;;;6291718;28;20041;-80
2021/03/03 12:41:37;;;;;;;49.88;32.58;;;;;;;;;;6291913;28;20126;-78
2021/03/03 12:44:39;;;;;;;51.08;31.90;;;;;;;;;;6288123;28;20541;-76
2021/03/03 12:47:40;;;;;;;50.97;30.73;;;;;;;;;;6288379;28;20422;-75
2021/03/03 12:50:41;;;;;;;49.70;29.25;;;;;;;;;;6287356;28;20347;-74
2021/03/03 12:53:45;;;;;;;48.97;30.33;;;;;;;;;;6289529;28;20148;-76
2021/03/03 12:56:46;;;;;;;53.03;30.10;;;;;;;;;;6290280;28;20632;-79
2021/03/03 12:59:48;;;;;;;44.13;29.38;;;;;;;;;;6290220;28;20483;-76
2021/03/03 13:02:49;;;;;;;51.42;29.17;;;;;;;;;;6294443;28;20048;-76
2021/03/03 13:05:50;;;;;;;46.47;29.17;;;;;;;;;;6291733;28;20036;-74
2021/03/03 13:08:52;;;;;;;49.70;29.75;;;;;;;;;;6288638;28;20055;-75
2021/03/03 13:11:53;;;;;;;46.22;27.77;;;;;;;;;;6287720;28;20376;-75
2021/03/03 13:14:54;;;;;;;46.97;28.30;;;;;;;;;;6285778;28;20067;-76
2021/03/03 13:17:55;;;;;;;49.15;29.40;;;;;;;;;;6289767;28;20074;-77
2021/03/03 13:20:56;;;;;;;49.97;29.13;;;;;;;;;;6288491;28;20093;-76
2021/03/03 13:23:58;;;;;;;47.28;29.02;;;;;;;;;;6288203;28;20152;-74
2021/03/03 13:27:00;;;;;;;47.97;27.88;;;;;;;;;;6292608;28;20044;-76
2021/03/03 13:30:01;;;;;;;50.97;29.15;;;;;;;;;;6288389;28;20060;-79
2021/03/03 13:33:02;;;;;;;47.30;29.35;;;;;;;;;;6291250;28;22128;-74
2021/03/03 13:36:04;;;;;;;51.15;28.95;;;;;;;;;;6287339;28;20066;-75
2021/03/03 13:39:06;;;;;;;49.97;29.55;;;;;;;;;;6289257;28;20050;-77
2021/03/03 13:42:08;;;;;;;47.47;29.77;;;;;;;;;;6285069;28;20043;-74
2021/03/03 13:45:11;;;;;;;47.58;28.00;;;;;;;;;;6286089;28;20056;-75
2021/03/03 13:48:12;;;;;;;42.08;26.98;;;;;;;;;;6287193;28;20047;-75
2021/03/03 13:51:13;;;;;;;45.80;28.00;;;;;;;;;;6291651;28;20131;-74
2021/03/03 13:54:15;;;;;;;53.47;28.58;;;;;;;;;;6290831;28;20075;-75
2021/03/03 13:57:17;;;;;;;46.28;28.85;;;;;;;;;;6286374;28;20064;-76
2021/03/03 14:00:18;;;;;;;48.35;29.92;;;;;;;;;;6293937;28;20067;-79
2021/03/03 14:03:19;;;;;;;48.05;28.73;;;;;;;;;;6299519;28;20080;-75
2021/03/03 14:06:20;;;;;;;49.22;31.42;;;;;;;;;;6295418;28;20205;-75
2021/03/03 14:09:22;;;;;;;50.90;30.77;;;;;;;;;;6293038;28;20036;-76
2021/03/03 14:12:23;;;;;;;46.38;30.08;;;;;;;;;;6291305;28;20168;-74
2021/03/03 14:15:24;;;;;;;51.90;30.95;;;;;;;;;;6287875;28;20508;-75
2021/03/03 14:18:25;;;;;;;48.75;29.30;;;;;;;;;;6290953;28;20062;-74
2021/03/03 14:21:26;;;;;;;47.88;30.73;;;;;;;;;;6287231;28;20521;-76
2021/03/03 14:24:28;;;;;;;54.97;32.15;;;;;;;;;;6289880;28;20565;-74
2021/03/03 14:27:29;;;;;;;51.75;30.42;;;;;;;;;;6288891;28;20075;-75
2021/03/03 14:30:30;;;;;;;53.20;30.52;;;;;;;;;;6288056;28;20066;-74
2021/03/03 14:33:32;;;;;;;49.22;31.42;;;;;;;;;;6288453;28;20167;-75
2021/03/03 14:36:33;;;;;;;50.58;30.75;;;;;;;;;;6290746;28;20140;-76
2021/03/03 14:39:34;;;;;;;48.67;31.55;;;;;;;;;;6290337;28;20144;-75
2021/03/03 14:42:36;;;;;;;47.75;32.33;;;;;;;;;;6294566;28;20073;-83
2021/03/03 14:45:37;;;;;;;45.45;30.38;;;;;;;;;;6288312;28;20127;-74
2021/03/03 14:48:38;;;;;;;56.00;31.65;;;;;;;;;;6291603;28;20082;-78
2021/03/03 14:51:39;;;;;;;52.00;32.83;;;;;;;;;;6287181;28;20062;-74
2021/03/03 14:54:43;;;;;;;49.45;31.92;;;;;;;;;;6291751;28;20139;-75
2021/03/03 14:57:44;;;;;;;51.22;32.40;;;;;;;;;;6290022;28;20051;-74
2021/03/03 15:00:46;;;;;;;49.90;33.45;;;;;;;;;;6283394;28;22035;-78
2021/03/03 15:03:47;;;;;;;55.35;33.75;;;;;;;;;;6285039;28;20040;-76
2021/03/03 15:06:48;;;;;;;63.25;33.85;;;;;;;;;;6285897;28;20092;-74
2021/03/03 15:09:51;;;;;;;61.00;33.58;;;;;;;;;;6292880;28;20241;-75
2021/03/03 15:12:53;;;;;;;55.87;33.57;;;;;;;;;;6285656;28;20506;-77
2021/03/03 15:15:57;;;;;;;59.50;34.28;;;;;;;;;;6287766;28;20481;-75
2021/03/03 15:18:58;;;;;;;;;;;;;;;;;;6289617;28;20428;-76
2021/03/03 15:21:59;;;;;;;63.58;34.08;;;;;;;;;;6284544;28;19967;-74
2021/03/03 15:25:01;;;;;;;56.95;33.75;;;;;;;;;;6287660;28;20133;-77
2021/03/03 15:28:02;;;;;;;57.08;34.08;;;;;;;;;;6281415;28;20140;-76
2021/03/03 15:31:03;;;;;;;58.35;33.35;;;;;;;;;;6279882;28;20075;-77
2021/03/03 15:34:04;;;;;;;52.50;33.92;;;;;;;;;;6285749;28;20174;-78
2021/03/03 15:37:06;;;;;;;60.55;34.10;;;;;;;;;;6289208;28;20044;-77
2021/03/03 15:40:09;;;;;;;59.83;34.33;;;;;;;;;;6286386;28;20070;-79
2021/03/03 15:43:11;;;;;;;57.08;33.15;;;;;;;;;;6285958;28;20185;-75
2021/03/03 15:46:12;;;;;;;64.10;34.63;;;;;;;;;;6280424;28;20128;-76
2021/03/03 15:49:13;;;;;;;55.95;33.33;;;;;;;;;;6285369;28;20151;-76
2021/03/03 15:52:14;;;;;;;54.58;33.60;;;;;;;;;;6251354;28;20859;-79
2021/03/03 15:55:16;;;;;;;59.28;33.63;;;;;;;;;;6278350;28;20064;-77
2021/03/03 15:58:17;;;;;;;55.33;32.80;;;;;;;;;;6288703;28;20482;-79
2021/03/03 16:01:18;;;;;;;58.40;33.53;;;;;;;;;;6286406;28;20151;-77
2021/03/03 16:04:19;;;;;;;58.13;34.67;;;;;;;;;;6283915;28;20134;-76
2021/03/03 16:07:20;;;;;;;57.20;33.22;;;;;;;;;;6290730;28;20522;-77
2021/03/03 16:10:22;;;;;;;58.67;32.40;;;;;;;;;;6290210;28;20421;-77
2021/03/03 16:13:23;;;;;;;52.33;31.67;;;;;;;;;;6290539;28;20123;-76
2021/03/03 16:16:26;;;;;;;55.72;32.38;;;;;;;;;;6284350;28;21358;-76
2021/03/03 16:19:27;;;;;;;57.95;31.77;;;;;;;;;;6292422;28;20044;-82
2021/03/03 16:22:28;;;;;;;64.32;33.47;;;;;;;;;;6289351;28;20066;-77
2021/03/03 16:25:30;;;;;;;63.03;34.03;;;;;;;;;;6289982;28;20079;-77
2021/03/03 16:28:31;;;;;;;55.35;32.67;;;;;;;;;;6287850;28;20503;-78
2021/03/03 16:31:32;;;;;;;54.88;33.65;;;;;;;;;;6291305;28;20135;-77
2021/03/03 16:34:33;;;;;;;59.15;34.88;;;;;;;;;;6286363;28;20175;-77
2021/03/03 16:37:34;;;;;;;64.40;34.33;;;;;;;;;;6285590;28;20144;-79
2021/03/03 16:40:36;;;;;;;55.40;33.75;;;;;;;;;;6286709;28;21295;-78
2021/03/03 16:43:37;;;;;;;63.08;33.38;;;;;;;;;;6284255;28;20075;-79
2021/03/03 16:47:16;;;;;;;62.15;32.63;;;;;;;;;;6283696;28;20276;-79
2021/03/03 16:50:17;;;;;;;64.97;33.45;;;;;;;;;;6288784;28;20087;-78
2021/03/03 16:53:18;;;;;;;68.88;32.60;;;;;;;;;;6290813;28;20559;-79
2021/03/03 16:56:20;;;;;;;77.88;33.92;;;;;;;;;;6284949;28;20085;-78
2021/03/03 16:59:22;;;;;;;68.15;33.78;;;;;;;;;;6288245;28;20053;-77
2021/03/03 17:02:23;;;;;;;60.70;34.58;;;;;;;;;;6291996;28;20132;-78
2021/03/03 17:05:24;;;;;;;57.13;34.13;;;;;;;;;;6291035;28;20085;-78
2021/03/03 17:08:25;;;;;;;61.58;33.88;;;;;;;;;;6288057;28;20454;-78
2021/03/03 17:11:27;;;;;;;61.00;35.67;;;;;;;;;;6293052;28;20183;-78
2021/03/03 17:14:28;;;;;;;64.93;34.38;;;;;;;;;;6292079;28;20719;-78
2021/03/03 17:17:30;;;;;;;90.40;35.33;;;;;;;;;;6291490;28;20080;-77
2021/03/03 17:20:31;;;;;;;67.13;36.13;;;;;;;;;;6290508;28;20071;-76
2021/03/03 17:23:32;;;;;;;67.10;34.83;;;;;;;;;;6290150;28;20376;-80
2021/03/03 17:26:34;;;;;;;66.72;34.83;;;;;;;;;;6291816;28;20056;-76
2021/03/03 17:29:35;;;;;;;60.92;33.50;;;;;;;;;;6290675;28;20136;-78
2021/03/03 17:32:36;;;;;;;65.97;35.20;;;;;;;;;;6291518;28;20044;-78
2021/03/03 17:35:37;;;;;;;68.38;36.30;;;;;;;;;;6290117;28;20051;-77
2021/03/03 17:38:38;;;;;;;61.03;34.88;;;;;;;;;;6296260;28;20266;-78
2021/03/03 17:41:40;;;;;;;61.40;34.63;;;;;;;;;;6292667;28;20554;-75
2021/03/03 17:44:41;;;;;;;67.75;36.33;;;;;;;;;;6297378;28;20060;-77